Time;durP1;ratioP1;P1;durP2;ratioP2;P2;SDS_P1;SDS_P2;PMS_P1;PMS_P2;Temp;Humidity;BMP_temperature;BMP_pressure;BME280_temperature;BME280_humidity;BME280_pressure;Samples;Min_cycle;Max_cycle;Signal;HPM_P1;HPM_P2
2023/01/15 00:01:29;;;;;;;;;;;;;;;8.06;86.16;99331.25;4128656;28;20028;-65
2023/01/15 00:03:32;;;;;;;;;;;;;;;8.06;85.93;99340.16;4127341;28;19937;-65
2023/01/15 00:05:35;;;;;;;;;;;;;;;8.09;85.68;99347.00;4111418;28;19972;-65
2023/01/15 00:07:37;;;;;;;;;;;;;;;8.09;85.88;99352.38;4128459;28;20079;-66
2023/01/15 00:09:39;;;;;;;;;;;;;;;8.12;85.38;99338.56;4128994;28;20094;-65
2023/01/15 00:11:41;;;;;;;;;;;;;;;8.15;85.22;99329.22;4128098;28;20510;-65
2023/01/15 00:13:43;;;;;;;;;;;;;;;8.16;85.21;99338.97;4128700;28;20475;-66
2023/01/15 00:15:45;;;;;;;;;;;;;;;8.16;85.30;99341.66;4128992;28;20012;-65
2023/01/15 00:17:47;;;;;;;;;;;;;;;8.15;85.40;99316.66;4127805;28;20048;-65
2023/01/15 00:19:50;;;;;;;;;;;;;;;8.16;85.15;99323.66;4129045;28;20028;-65
2023/01/15 00:21:52;;;;;;;;;;;;;;;8.17;84.91;99322.66;4127622;28;20024;-65
2023/01/15 00:28:34;;;;;;;;;;;;;;;8.18;85.03;99327.00;4130845;28;20840;-66
2023/01/15 00:30:39;;;;;;;;;;;;;;;8.19;84.79;99339.41;4131441;28;20120;-66
2023/01/15 00:32:42;;;;;;;;;;;;;;;8.20;84.37;99327.63;4131258;28;20017;-65
2023/01/15 00:34:44;;;;;;;;;;;;;;;8.22;84.22;99325.56;4131912;28;20028;-66
2023/01/15 00:36:48;;;;;;;;;;;;;;;8.25;84.82;99313.59;4114195;28;20012;-65
2023/01/15 00:38:50;;;;;;;;;;;;;;;8.27;84.28;99309.66;4131087;28;20017;-65
2023/01/15 00:40:52;;;;;;;;;;;;;;;8.29;84.18;99304.09;4114170;28;20025;-65
2023/01/15 00:42:57;;;;;;;;;;;;;;;8.29;84.42;99301.41;4130406;28;20013;-65
2023/01/15 00:45:04;;;;;;;;;;;;;;;8.30;84.32;99281.56;4146707;28;20015;-65
2023/01/15 00:47:08;;;;;;;;;;;;;;;8.31;84.34;99288.59;4130779;28;20008;-65
2023/01/15 00:49:10;;;;;;;;;;;;;;;8.30;84.20;99303.88;4112575;28;20384;-65
2023/01/15 00:51:12;;;;;;;;;;;;;;;8.31;83.93;99285.91;4113808;28;20459;-65
2023/01/15 00:53:15;;;;;;;;;;;;;;;8.32;84.06;99278.66;4131071;28;20020;-65
2023/01/15 00:55:17;;;;;;;;;;;;;;;8.36;84.34;99261.94;4131848;28;20016;-65
2023/01/15 00:57:19;;;;;;;;;;;;;;;8.36;84.10;99267.31;4131023;28;20056;-65
2023/01/15 00:59:22;;;;;;;;;;;;;;;8.37;83.67;99276.19;4115246;28;20451;-65
2023/01/15 01:01:24;;;;;;;;;;;;;;;8.39;83.59;99276.84;4131494;28;20008;-65
2023/01/15 01:03:26;;;;;;;;;;;;;;;8.40;83.49;99270.41;4130836;28;20004;-65
2023/01/15 01:05:28;;;;;;;;;;;;;;;8.42;83.69;99268.38;4129639;28;19925;-65
2023/01/15 01:07:29;;;;;;;;;;;;;;;8.42;83.40;99271.91;4130852;28;20008;-65
2023/01/15 01:09:33;;;;;;;;;;;;;;;8.43;83.45;99268.22;4131680;28;20031;-65
2023/01/15 01:11:36;;;;;;;;;;;;;;;8.47;83.28;99258.69;4129702;28;20024;-65
2023/01/15 01:13:38;;;;;;;;;;;;;;;8.46;83.32;99253.50;4131235;28;20020;-66
2023/01/15 01:15:40;;;;;;;;;;;;;;;8.46;83.05;99242.75;4146391;28;20012;-65
2023/01/15 01:17:42;;;;;;;;;;;;;;;8.46;83.12;99265.13;4129407;28;20024;-65
2023/01/15 01:19:44;;;;;;;;;;;;;;;8.49;82.92;99263.88;4131310;28;20012;-65
2023/01/15 01:21:46;;;;;;;;;;;;;;;8.51;82.83;99253.78;4128437;28;20008;-65
2023/01/15 01:23:48;;;;;;;;;;;;;;;8.54;82.69;99264.13;4130712;28;19928;-65
2023/01/15 01:25:52;;;;;;;;;;;;;;;8.55;82.33;99240.72;4131426;28;19926;-65
2023/01/15 01:27:54;;;;;;;;;;;;;;;8.56;82.42;99253.16;4130213;28;20032;-65
2023/01/15 01:29:56;;;;;;;;;;;;;;;8.59;82.51;99260.81;4114072;28;20048;-65
2023/01/15 01:31:58;;;;;;;;;;;;;;;8.60;82.95;99246.34;4112716;28;20021;-65
2023/01/15 01:34:00;;;;;;;;;;;;;;;8.61;82.72;99266.84;4131281;28;20439;-65
2023/01/15 01:36:02;;;;;;;;;;;;;;;8.64;82.54;99271.84;4129280;28;20009;-65
2023/01/15 01:38:04;;;;;;;;;;;;;;;8.64;82.04;99253.00;4104771;28;20030;-65
2023/01/15 01:40:06;;;;;;;;;;;;;;;8.64;82.17;99282.59;4128653;28;20016;-65
2023/01/15 01:42:12;;;;;;;;;;;;;;;8.70;82.23;99259.41;4129366;28;20491;-65
2023/01/15 01:44:33;;;;;;;;;;;;;;;8.71;82.48;99258.38;4130558;28;20351;-65
2023/01/15 01:46:36;;;;;;;;;;;;;;;8.68;82.27;99242.63;4130163;28;19980;-65
2023/01/15 01:48:38;;;;;;;;;;;;;;;8.68;82.45;99229.19;4129179;28;20025;-65
2023/01/15 01:50:40;;;;;;;;;;;;;;;8.69;82.34;99231.69;4113341;28;20016;-65
2023/01/15 01:52:43;;;;;;;;;;;;;;;8.70;82.73;99230.66;4128691;28;20021;-65
2023/01/15 01:54:45;;;;;;;;;;;;;;;8.70;82.58;99236.03;4129700;28;20016;-65
2023/01/15 01:56:48;;;;;;;;;;;;;;;8.70;82.20;99241.41;4130102;28;20068;-65
2023/01/15 01:58:53;;;;;;;;;;;;;;;8.71;82.32;99245.75;4129561;28;20363;-65
2023/01/15 02:00:55;;;;;;;;;;;;;;;8.70;82.55;99232.50;4145493;28;20061;-65
2023/01/15 02:02:57;;;;;;;;;;;;;;;8.74;81.76;99241.84;4120381;28;20005;-65
2023/01/15 02:05:00;;;;;;;;;;;;;;;8.73;82.26;99243.72;4113425;28;20045;-65
2023/01/15 02:07:03;;;;;;;;;;;;;;;8.73;82.28;99265.25;4128419;28;19934;-65
2023/01/15 02:09:04;;;;;;;;;;;;;;;8.75;82.67;99235.44;4130793;28;20004;-65
2023/01/15 02:11:12;;;;;;;;;;;;;;;8.75;82.28;99244.34;4113110;28;20525;-65
2023/01/15 02:13:16;;;;;;;;;;;;;;;8.74;82.94;99248.03;4145225;28;19969;-65
2023/01/15 02:15:22;;;;;;;;;;;;;;;8.74;83.08;99241.84;4128591;28;20016;-65
2023/01/15 02:17:25;;;;;;;;;;;;;;;8.74;83.37;99236.47;4112862;28;20443;-66
2023/01/15 02:19:30;;;;;;;;;;;;;;;8.72;83.13;99236.66;4130546;28;20023;-65
2023/01/15 02:21:36;;;;;;;;;;;;;;;8.72;83.26;99225.06;4130146;28;20230;-65
2023/01/15 02:23:51;;;;;;;;;;;;;;;8.73;83.71;99232.09;4143852;28;21689;-65
2023/01/15 02:26:01;;;;;;;;;;;;;;;8.71;83.03;99224.22;4129339;28;20008;-65
2023/01/15 02:28:07;;;;;;;;;;;;;;;8.70;83.65;99244.13;4120277;28;20415;-65
2023/01/15 02:30:10;;;;;;;;;;;;;;;8.70;83.94;99232.50;4145347;28;20392;-66
2023/01/15 02:32:27;;;;;;;;;;;;;;;8.68;84.45;99246.16;4111359;28;20057;-65
2023/01/15 02:34:31;;;;;;;;;;;;;;;8.67;84.44;99236.44;4129118;28;20028;-66
2023/01/15 02:36:34;;;;;;;;;;;;;;;8.65;84.67;99227.72;4130219;28;20037;-65
2023/01/15 02:38:37;;;;;;;;;;;;;;;8.64;84.74;99229.59;4143852;28;20611;-65
2023/01/15 02:40:39;;;;;;;;;;;;;;;8.64;84.91;99234.16;4144758;28;20020;-65
2023/01/15 02:42:42;;;;;;;;;;;;;;;8.65;85.29;99230.41;4127061;28;20008;-65
2023/01/15 02:44:47;;;;;;;;;;;;;;;8.63;85.46;99225.22;4130472;28;20017;-65
2023/01/15 02:46:50;;;;;;;;;;;;;;;8.64;85.18;99209.94;4128915;28;20001;-65
2023/01/15 02:48:53;;;;;;;;;;;;;;;8.63;85.61;99211.78;4128516;28;20502;-65
2023/01/15 02:50:56;;;;;;;;;;;;;;;8.61;85.35;99205.78;4128375;28;20013;-65
2023/01/15 02:53:00;;;;;;;;;;;;;;;8.61;85.72;99226.47;4127890;28;20017;-65
2023/01/15 02:55:07;;;;;;;;;;;;;;;8.59;85.82;99209.69;4122618;28;20008;-65
2023/01/15 02:57:15;;;;;;;;;;;;;;;8.58;86.05;99202.66;4144379;28;20028;-66
2023/01/15 02:59:20;;;;;;;;;;;;;;;8.58;85.82;99210.72;4128729;28;20394;-65
2023/01/15 03:01:25;;;;;;;;;;;;;;;8.59;86.04;99212.38;4112769;28;20028;-65
2023/01/15 03:03:30;;;;;;;;;;;;;;;8.59;85.51;99210.53;4128736;28;20487;-65
2023/01/15 03:05:34;;;;;;;;;;;;;;;8.59;85.39;99212.38;4112295;28;20508;-66
2023/01/15 03:07:37;;;;;;;;;;;;;;;8.59;85.29;99212.38;4129170;28;20012;-65
2023/01/15 03:09:39;;;;;;;;;;;;;;;8.60;85.87;99214.03;4104533;28;20328;-65
2023/01/15 03:11:43;;;;;;;;;;;;;;;8.58;86.49;99203.47;4126734;28;20012;-65
2023/01/15 03:13:46;;;;;;;;;;;;;;;8.59;86.74;99212.38;4129732;28;20013;-65
2023/01/15 03:18:12;;;;;;;;;;;;;;;8.59;85.47;99199.75;4143198;28;20369;-65
2023/01/15 03:20:16;;;;;;;;;;;;;;;8.59;86.38;99201.59;4128914;28;20378;-65
2023/01/15 03:22:19;;;;;;;;;;;;;;;8.57;86.08;99198.28;4128982;28;20021;-65
2023/01/15 03:24:23;;;;;;;;;;;;;;;8.55;85.91;99205.75;4129524;28;20017;-65
2023/01/15 03:26:25;;;;;;;;;;;;;;;8.58;85.87;99206.16;4128397;28;20623;-65
2023/01/15 03:28:29;;;;;;;;;;;;;;;8.58;86.22;99206.16;4111761;28;20004;-65
2023/01/15 03:30:31;;;;;;;;;;;;;;;8.57;85.79;99199.13;4129447;28;19926;-65
2023/01/15 03:32:33;;;;;;;;;;;;;;;8.56;85.93;99189.41;4128433;28;20021;-65
2023/01/15 03:34:38;;;;;;;;;;;;;;;8.56;86.42;99202.03;4128267;28;20017;-65
2023/01/15 03:36:41;;;;;;;;;;;;;;;8.54;87.25;99196.00;4110980;28;20021;-65
2023/01/15 03:38:46;;;;;;;;;;;;;;;8.52;87.97;99196.22;4111320;28;20021;-65
2023/01/15 03:40:54;;;;;;;;;;;;;;;8.51;87.86;99197.25;4111911;28;19957;-65
2023/01/15 03:43:39;;;;;;;;;;;;;;;8.50;87.42;99195.59;4111442;28;20005;-66
2023/01/15 03:45:23;;;;;;;;;;;;;;;8.51;87.26;99197.25;4144649;28;20024;-65
2023/01/15 03:47:29;;;;;;;;;;;;;;;8.51;87.01;99199.09;4143478;28;20061;-65
2023/01/15 03:49:37;;;;;;;;;;;;;;;8.50;86.74;99197.47;4128382;28;20372;-65
2023/01/15 03:51:49;;;;;;;;;;;;;;;8.50;86.25;99208.22;4126783;28;20020;-65
2023/01/15 03:53:52;;;;;;;;;;;;;;;8.52;86.71;99206.16;4143527;28;20016;-65
2023/01/15 03:55:57;;;;;;;;;;;;;;;8.52;87.18;99211.53;4119413;28;20025;-65
2023/01/15 03:58:00;;;;;;;;;;;;;;;8.52;87.07;99206.97;4128623;28;20686;-65
2023/01/15 04:00:07;;;;;;;;;;;;;;;8.53;86.68;99213.22;4127462;28;20016;-65
2023/01/15 04:02:17;;;;;;;;;;;;;;;8.53;86.29;99221.28;4130094;28;20020;-65
2023/01/15 04:04:19;;;;;;;;;;;;;;;8.55;85.77;99219.22;4115518;28;20440;-65
2023/01/15 04:06:23;;;;;;;;;;;;;;;8.56;86.29;99212.81;4132293;28;20028;-65
2023/01/15 04:08:26;;;;;;;;;;;;;;;8.56;86.62;99210.13;4130372;28;20024;-65
2023/01/15 04:10:28;;;;;;;;;;;;;;;8.56;86.79;99218.19;4132237;28;20020;-65
2023/01/15 04:12:32;;;;;;;;;;;;;;;8.55;86.92;99206.56;4130253;28;19965;-65
2023/01/15 04:14:35;;;;;;;;;;;;;;;8.48;86.76;99200.34;4114900;28;20013;-65
2023/01/15 04:16:42;;;;;;;;;;;;;;;8.52;86.42;99211.53;4130376;28;20017;-65
2023/01/15 04:18:45;;;;;;;;;;;;;;;8.53;86.51;99207.81;4123462;28;20028;-65
2023/01/15 04:20:48;;;;;;;;;;;;;;;8.53;87.40;99214.03;4131710;28;20024;-65
2023/01/15 04:22:52;;;;;;;;;;;;;;;8.52;87.79;99233.88;4114413;28;20013;-65
2023/01/15 04:24:54;;;;;;;;;;;;;;;8.50;87.76;99224.38;4131896;28;20016;-65
2023/01/15 04:26:56;;;;;;;;;;;;;;;8.50;88.19;99256.66;4131695;28;20427;-65
2023/01/15 04:28:58;;;;;;;;;;;;;;;8.49;88.12;99290.78;4131756;28;20016;-65
2023/01/15 04:31:00;;;;;;;;;;;;;;;8.49;88.21;99296.16;4131700;28;20012;-65
2023/01/15 04:33:02;;;;;;;;;;;;;;;8.50;86.91;99297.84;4131699;28;19925;-65
2023/01/15 04:35:04;;;;;;;;;;;;;;;8.47;85.94;99311.69;4131846;28;20009;-65
2023/01/15 04:37:06;;;;;;;;;;;;;;;8.42;85.64;99298.81;4130938;28;20012;-65
2023/01/15 04:39:10;;;;;;;;;;;;;;;8.39;84.95;99301.88;4147187;28;20032;-65
2023/01/15 04:45:51;;;;;;;;;;;;;;;8.28;84.29;99315.91;4132065;28;20638;-65
2023/01/15 04:47:53;;;;;;;;;;;;;;;8.25;84.18;99329.72;4131403;28;20023;-65
2023/01/15 04:49:55;;;;;;;;;;;;;;;8.21;84.00;99323.94;4131246;28;20365;-65
2023/01/15 04:51:56;;;;;;;;;;;;;;;8.19;83.45;99335.91;4130378;28;20352;-65
2023/01/15 04:54:00;;;;;;;;;;;;;;;8.18;83.48;99342.28;4132069;28;19933;-65
2023/01/15 04:56:04;;;;;;;;;;;;;;;8.14;83.10;99354.50;4132292;28;20012;-65
2023/01/15 04:58:06;;;;;;;;;;;;;;;8.11;83.30;99337.69;4130584;28;20352;-65
2023/01/15 05:00:08;;;;;;;;;;;;;;;8.06;82.16;99339.31;4131422;28;20033;-65
2023/01/15 05:02:10;;;;;;;;;;;;;;;8.00;81.64;99346.31;4130558;28;20000;-65
2023/01/15 05:04:12;;;;;;;;;;;;;;;7.96;81.57;99355.78;4131241;28;20509;-65
2023/01/15 05:06:14;;;;;;;;;;;;;;;7.92;80.57;99349.97;4131678;28;20024;-65
2023/01/15 05:08:16;;;;;;;;;;;;;;;7.86;80.00;99361.47;4130916;28;20004;-65
2023/01/15 05:10:18;;;;;;;;;;;;;;;7.83;79.90;99367.25;4131040;28;20024;-65
2023/01/15 05:12:21;;;;;;;;;;;;;;;7.82;79.42;99364.75;4131079;28;19933;-65
2023/01/15 05:14:24;;;;;;;;;;;;;;;7.75;78.29;99368.22;4129577;28;19979;-65
2023/01/15 05:16:27;;;;;;;;;;;;;;;7.70;78.08;99361.75;4131304;28;20056;-65
2023/01/15 05:18:29;;;;;;;;;;;;;;;7.69;78.50;99360.09;4130475;28;20017;-65
2023/01/15 05:20:31;;;;;;;;;;;;;;;7.66;77.86;99360.47;4130953;28;20616;-65
2023/01/15 05:22:33;;;;;;;;;;;;;;;7.60;77.14;99353.19;4130562;28;19989;-65
2023/01/15 05:24:35;;;;;;;;;;;;;;;7.55;77.06;99357.28;4131482;28;20052;-65
2023/01/15 05:26:37;;;;;;;;;;;;;;;7.51;77.10;99352.47;4130927;28;20025;-65
2023/01/15 05:28:40;;;;;;;;;;;;;;;7.46;77.08;99355.75;4131428;28;20615;-64
2023/01/15 05:30:42;;;;;;;;;;;;;;;7.41;77.03;99366.22;4131161;28;20073;-65
2023/01/15 05:32:44;;;;;;;;;;;;;;;7.38;76.63;99361.22;4130648;28;20004;-65
2023/01/15 05:34:46;;;;;;;;;;;;;;;7.36;77.09;99358.72;4131123;28;19976;-66
2023/01/15 05:36:48;;;;;;;;;;;;;;;7.32;76.98;99359.28;4131095;28;20029;-66
2023/01/15 05:38:50;;;;;;;;;;;;;;;7.31;77.40;99360.31;4131434;28;20004;-66
2023/01/15 05:40:52;;;;;;;;;;;;;;;7.31;77.15;99369.19;4146196;28;20450;-68
2023/01/15 05:42:54;;;;;;;;;;;;;;;7.27;77.10;99373.28;4130482;28;20024;-65
2023/01/15 05:44:57;;;;;;;;;;;;;;;7.21;76.88;99366.84;4130984;28;20437;-65
2023/01/15 05:47:01;;;;;;;;;;;;;;;7.20;77.41;99361.66;4130326;28;20467;-65
2023/01/15 05:49:03;;;;;;;;;;;;;;;7.16;77.26;99357.66;4113879;28;20429;-66
2023/01/15 05:51:06;;;;;;;;;;;;;;;7.08;77.70;99369.34;4130985;28;20016;-65
2023/01/15 05:53:07;;;;;;;;;;;;;;;7.03;77.91;99366.41;4128684;28;20008;-65
2023/01/15 05:55:09;;;;;;;;;;;;;;;6.98;77.96;99380.38;4130293;28;19957;-66
2023/01/15 05:57:12;;;;;;;;;;;;;;;6.93;78.02;99381.94;4130273;28;20021;-65
2023/01/15 05:59:15;;;;;;;;;;;;;;;6.89;78.41;99375.31;4131008;28;20527;-65
2023/01/15 06:01:18;;;;;;;;;;;;;;;6.88;78.54;99370.94;4130104;28;20476;-63
2023/01/15 06:03:21;;;;;;;;;;;;;;;6.85;78.57;99374.84;4130156;28;20506;-65
2023/01/15 06:05:23;;;;;;;;;;;;;;;6.84;78.53;99368.63;4130928;28;20016;-65
2023/01/15 06:07:25;;;;;;;;;;;;;;;6.77;78.71;99366.88;4129348;28;20056;-65
2023/01/15 06:09:28;;;;;;;;;;;;;;;6.73;79.03;99366.44;4130637;28;20036;-65
2023/01/15 06:11:30;;;;;;;;;;;;;;;6.73;79.24;99362.91;4130440;28;20024;-65
2023/01/15 06:13:32;;;;;;;;;;;;;;;6.73;79.66;99371.78;4129574;28;20012;-65
2023/01/15 06:15:34;;;;;;;;;;;;;;;6.76;79.51;99365.22;4130387;28;19964;-66
2023/01/15 06:17:37;;;;;;;;;;;;;;;6.75;79.62;99364.38;4129477;28;20024;-65
2023/01/15 06:19:39;;;;;;;;;;;;;;;6.67;79.22;99356.44;4130807;28;20020;-65
2023/01/15 06:21:41;;;;;;;;;;;;;;;6.65;79.79;99361.16;4129321;28;20444;-65
2023/01/15 06:23:43;;;;;;;;;;;;;;;6.64;79.93;99359.50;4130197;28;20455;-65
2023/01/15 06:25:45;;;;;;;;;;;;;;;6.66;80.38;99352.06;4129727;28;20024;-65
2023/01/15 06:27:48;;;;;;;;;;;;;;;6.67;80.33;99361.81;4129619;28;20025;-65
2023/01/15 06:29:50;;;;;;;;;;;;;;;6.66;80.42;99373.53;4130235;28;20427;-65
2023/01/15 06:31:52;;;;;;;;;;;;;;;6.63;80.41;99363.19;4128854;28;20016;-65
2023/01/15 06:33:55;;;;;;;;;;;;;;;6.62;80.24;99357.00;4130514;28;20044;-66
2023/01/15 06:35:57;;;;;;;;;;;;;;;6.61;80.27;99373.28;4130175;28;20344;-65
2023/01/15 06:37:59;;;;;;;;;;;;;;;6.59;80.18;99369.94;4128862;28;20013;-66
2023/01/15 06:40:01;;;;;;;;;;;;;;;6.57;80.73;99383.56;4129388;28;20004;-65
2023/01/15 06:49:03;;;;;;;;;;;;;;;6.53;80.43;99397.50;4123772;28;20024;-65
2023/01/15 06:51:05;;;;;;;;;;;;;;;6.48;80.65;99390.84;4128842;28;20020;-66
2023/01/15 06:53:07;;;;;;;;;;;;;;;6.46;80.93;99384.00;4129503;28;20036;-66
2023/01/15 06:55:10;;;;;;;;;;;;;;;6.44;81.34;99389.56;4130532;28;20036;-65
2023/01/15 06:57:12;;;;;;;;;;;;;;;6.44;81.65;99386.88;4130331;28;20045;-66
2023/01/15 06:59:14;;;;;;;;;;;;;;;6.42;81.36;99383.53;4129632;28;20017;-65
2023/01/15 07:01:16;;;;;;;;;;;;;;;6.40;81.63;99379.38;4130172;28;20009;-65
2023/01/15 07:03:18;;;;;;;;;;;;;;;6.40;81.43;99382.88;4129586;28;20001;-66
2023/01/15 07:05:21;;;;;;;;;;;;;;;6.39;81.38;99394.63;4129228;28;20362;-66
2023/01/15 07:07:23;;;;;;;;;;;;;;;6.38;81.30;99389.44;4129674;28;20420;-66
2023/01/15 07:09:25;;;;;;;;;;;;;;;6.38;81.49;99389.44;4129987;28;20028;-65
2023/01/15 07:11:27;;;;;;;;;;;;;;;6.43;81.31;99387.06;4129414;28;20029;-65
2023/01/15 07:13:29;;;;;;;;;;;;;;;6.42;81.45;99390.75;4129096;28;20358;-65
2023/01/15 07:15:31;;;;;;;;;;;;;;;6.40;81.40;99393.59;4129602;28;20020;-65
2023/01/15 07:17:33;;;;;;;;;;;;;;;6.39;81.23;99402.66;4129298;28;20431;-65
2023/01/15 07:19:35;;;;;;;;;;;;;;;6.37;81.85;99412.75;4129990;28;20017;-65
2023/01/15 07:21:38;;;;;;;;;;;;;;;6.37;81.72;99411.91;4129264;28;20404;-65
2023/01/15 07:23:40;;;;;;;;;;;;;;;6.35;82.21;99409.44;4129370;28;20033;-65
2023/01/15 07:25:42;;;;;;;;;;;;;;;6.35;81.93;99409.44;4129558;28;20456;-65
2023/01/15 07:27:45;;;;;;;;;;;;;;;6.38;82.09;99410.88;4129170;28;20016;-65
2023/01/15 07:29:48;;;;;;;;;;;;;;;6.39;82.07;99401.84;4130411;28;20024;-66
2023/01/15 07:31:50;;;;;;;;;;;;;;;6.37;82.13;99415.44;4128005;28;20467;-65
2023/01/15 07:33:52;;;;;;;;;;;;;;;6.37;82.13;99415.44;4130023;28;20020;-66
2023/01/15 07:35:55;;;;;;;;;;;;;;;6.36;82.36;99412.94;4130085;28;20016;-65
2023/01/15 07:37:58;;;;;;;;;;;;;;;6.32;82.34;99420.50;4128810;28;19960;-65
2023/01/15 07:40:00;;;;;;;;;;;;;;;6.30;82.42;99422.53;4129036;28;20017;-65
2023/01/15 07:51:20;;;;;;;;;;;;;;;6.18;82.59;99422.13;4128515;28;20020;-66
2023/01/15 07:53:23;;;;;;;;;;;;;;;6.17;82.71;99425.00;4129163;28;20020;-66
2023/01/15 07:55:25;;;;;;;;;;;;;;;6.20;82.80;99433.50;4128985;28;20004;-66
2023/01/15 07:57:27;;;;;;;;;;;;;;;6.25;82.94;99439.19;4128084;28;20012;-65
2023/01/15 07:59:29;;;;;;;;;;;;;;;6.26;82.52;99440.00;4129584;28;20008;-65
2023/01/15 08:01:31;;;;;;;;;;;;;;;6.27;82.42;99442.50;4129523;28;20360;-66
2023/01/15 08:03:33;;;;;;;;;;;;;;;6.30;82.15;99443.97;4128096;28;20009;-65
2023/01/15 08:05:35;;;;;;;;;;;;;;;6.29;81.99;99439.66;4129426;28;20021;-65
2023/01/15 08:07:37;;;;;;;;;;;;;;;6.28;82.11;99446.00;4128798;28;20008;-65
2023/01/15 08:09:40;;;;;;;;;;;;;;;6.26;81.79;99448.06;4127707;28;20475;-65
2023/01/15 08:16:22;;;;;;;;;;;;;;;6.26;81.16;99430.09;4127269;28;20017;-65
2023/01/15 08:18:24;;;;;;;;;;;;;;;6.25;81.11;99435.66;4125451;28;20415;-65
2023/01/15 08:20:26;;;;;;;;;;;;;;;6.25;81.16;99425.78;4127766;28;20331;-65
2023/01/15 08:22:28;;;;;;;;;;;;;;;6.26;81.36;99408.66;4127904;28;20012;-65
2023/01/15 08:24:30;;;;;;;;;;;;;;;6.27;81.13;99413.00;4128040;28;20009;-64
2023/01/15 08:26:33;;;;;;;;;;;;;;;6.26;81.16;99419.38;4127287;28;20029;-64
2023/01/15 08:28:36;;;;;;;;;;;;;;;6.26;81.33;99427.41;4127005;28;21430;-64
2023/01/15 08:30:38;;;;;;;;;;;;;;;6.26;80.90;99430.09;4128387;28;20012;-64
2023/01/15 08:32:40;;;;;;;;;;;;;;;6.25;80.86;99425.78;4127135;28;19925;-64
2023/01/15 08:34:42;;;;;;;;;;;;;;;6.25;80.50;99427.59;4128541;28;20012;-64
2023/01/15 08:36:44;;;;;;;;;;;;;;;6.24;80.51;99434.00;4127470;28;20020;-63
2023/01/15 08:38:48;;;;;;;;;;;;;;;6.22;80.44;99427.97;4126605;28;20051;-66
2023/01/15 08:40:58;;;;;;;;;;;;;;;6.22;80.69;99430.66;4128959;28;20020;-64
2023/01/15 08:43:00;;;;;;;;;;;;;;;6.24;80.36;99434.00;4127776;28;20028;-64
2023/01/15 08:45:03;;;;;;;;;;;;;;;6.22;79.95;99426.13;4129059;28;20623;-64
2023/01/15 08:47:06;;;;;;;;;;;;;;;6.21;80.10;99434.38;4127165;28;20355;-64
2023/01/15 08:49:08;;;;;;;;;;;;;;;6.25;79.84;99433.81;4129730;28;20336;-64
2023/01/15 08:51:10;;;;;;;;;;;;;;;6.28;79.79;99432.59;4130204;28;20037;-63
2023/01/15 08:53:12;;;;;;;;;;;;;;;6.25;79.30;99439.19;4129508;28;20388;-64
2023/01/15 08:55:14;;;;;;;;;;;;;;;6.24;79.23;99440.19;4130364;28;20036;-64
2023/01/15 08:57:16;;;;;;;;;;;;;;;6.23;79.54;99429.63;4129286;28;20032;-64
2023/01/15 08:59:18;;;;;;;;;;;;;;;6.21;79.51;99429.81;4130620;28;20028;-64
2023/01/15 09:01:22;;;;;;;;;;;;;;;6.23;79.60;99435.00;4129417;28;20029;-63
2023/01/15 09:03:24;;;;;;;;;;;;;;;6.21;79.28;99429.81;4130327;28;20016;-64
2023/01/15 09:05:26;;;;;;;;;;;;;;;6.25;79.44;99427.59;4132132;28;20008;-64
2023/01/15 09:07:28;;;;;;;;;;;;;;;6.24;79.48;99436.69;4129692;28;20040;-64
2023/01/15 09:09:30;;;;;;;;;;;;;;;6.24;79.55;99455.44;4131507;28;20008;-64
2023/01/15 09:11:32;;;;;;;;;;;;;;;6.22;79.23;99450.28;4129773;28;20706;-65
2023/01/15 09:13:34;;;;;;;;;;;;;;;6.21;79.47;99455.81;4129210;28;20437;-64
2023/01/15 09:15:37;;;;;;;;;;;;;;;6.18;79.48;99465.03;4127617;28;20016;-64
2023/01/15 09:17:40;;;;;;;;;;;;;;;6.16;79.78;99456.34;4128307;28;20435;-65
2023/01/15 09:19:42;;;;;;;;;;;;;;;6.15;79.86;99457.34;4130694;28;20029;-64
2023/01/15 09:21:44;;;;;;;;;;;;;;;6.13;79.83;99460.22;4129655;28;20069;-65
2023/01/15 09:23:46;;;;;;;;;;;;;;;6.13;79.77;99448.66;4129941;28;20012;-64
2023/01/15 09:25:51;;;;;;;;;;;;;;;6.18;79.77;99450.81;4130771;28;20396;-65
2023/01/15 09:27:55;;;;;;;;;;;;;;;6.20;80.10;99462.19;4131280;28;20032;-65
2023/01/15 09:29:57;;;;;;;;;;;;;;;6.24;80.02;99471.53;4131724;28;20459;-64
2023/01/15 09:31:59;;;;;;;;;;;;;;;6.26;80.22;99480.22;4130173;28;20008;-65
2023/01/15 09:34:02;;;;;;;;;;;;;;;6.28;80.33;99468.28;4131348;28;19921;-65
2023/01/15 09:36:05;;;;;;;;;;;;;;;6.28;79.88;99467.47;4131681;28;20439;-65
2023/01/15 09:38:07;;;;;;;;;;;;;;;6.29;79.80;99466.47;4130962;28;20024;-65
2023/01/15 09:40:18;;;;;;;;;;;;;;;6.28;79.67;99478.19;4131132;28;20004;-64
2023/01/15 09:42:24;;;;;;;;;;;;;;;6.29;79.94;99469.13;4130343;28;20004;-64
2023/01/15 09:44:29;;;;;;;;;;;;;;;6.30;79.67;99477.00;4131623;28;20807;-65
2023/01/15 09:46:32;;;;;;;;;;;;;;;6.34;79.40;99482.00;4131424;28;20016;-64
2023/01/15 09:48:38;;;;;;;;;;;;;;;6.36;79.21;99478.13;4119570;28;20528;-64
2023/01/15 09:50:44;;;;;;;;;;;;;;;6.39;78.92;99476.94;4131084;28;20005;-64
2023/01/15 09:52:53;;;;;;;;;;;;;;;6.39;79.04;99475.06;4130529;28;20020;-64
2023/01/15 09:54:57;;;;;;;;;;;;;;;6.40;78.84;99478.59;4131450;28;20419;-65
2023/01/15 09:56:59;;;;;;;;;;;;;;;6.41;78.89;99467.69;4130462;28;20001;-65
2023/01/15 09:59:01;;;;;;;;;;;;;;;6.40;78.77;99462.50;4130917;28;20012;-64
2023/01/15 10:01:03;;;;;;;;;;;;;;;6.38;78.58;99465.38;4130642;28;20028;-65
2023/01/15 10:03:05;;;;;;;;;;;;;;;6.37;78.98;99471.75;4130426;28;20004;-64
2023/01/15 10:05:08;;;;;;;;;;;;;;;6.39;79.05;99488.47;4131224;28;20020;-65
2023/01/15 10:07:17;;;;;;;;;;;;;;;6.43;78.44;99478.25;4130022;28;20420;-64
2023/01/15 10:09:20;;;;;;;;;;;;;;;6.48;78.33;99473.97;4131252;28;20345;-65
2023/01/15 10:12:34;;;;;;;;;;;;;;;6.47;78.16;99477.69;4130608;28;20455;-64
2023/01/15 10:13:53;;;;;;;;;;;;;;;6.49;78.40;99475.66;4129493;28;20601;-65
2023/01/15 10:15:55;;;;;;;;;;;;;;;6.48;78.49;99476.66;4130781;28;19922;-64
2023/01/15 10:17:58;;;;;;;;;;;;;;;6.50;78.28;99479.16;4130563;28;20016;-64
2023/01/15 10:20:00;;;;;;;;;;;;;;;6.51;77.96;99478.16;4130980;28;20024;-65
2023/01/15 10:22:02;;;;;;;;;;;;;;;6.51;77.88;99464.75;4129849;28;20004;-64
2023/01/15 10:24:06;;;;;;;;;;;;;;;6.54;78.11;99467.06;4130809;28;20456;-65
2023/01/15 10:26:17;;;;;;;;;;;;;;;6.55;77.53;99457.16;4130416;28;20027;-65
2023/01/15 10:28:19;;;;;;;;;;;;;;;6.56;77.78;99464.22;4129920;28;20415;-65
2023/01/15 10:30:23;;;;;;;;;;;;;;;6.54;77.72;99461.72;4130654;28;20497;-65
2023/01/15 10:32:29;;;;;;;;;;;;;;;6.55;77.33;99455.34;4129443;28;20435;-64
2023/01/15 10:34:35;;;;;;;;;;;;;;;6.54;77.04;99461.72;4130550;28;22458;-64
2023/01/15 10:36:38;;;;;;;;;;;;;;;6.59;77.23;99469.22;4129841;28;20024;-64
2023/01/15 10:38:42;;;;;;;;;;;;;;;6.60;76.95;99469.03;4130180;28;20009;-65
2023/01/15 10:41:05;;;;;;;;;;;;;;;6.58;76.88;99462.16;4130390;28;20020;-64
2023/01/15 10:43:11;;;;;;;;;;;;;;;6.61;76.81;99465.31;4125583;28;20020;-65
2023/01/15 10:45:14;;;;;;;;;;;;;;;6.60;76.75;99463.66;4130165;28;20024;-65
2023/01/15 10:47:17;;;;;;;;;;;;;;;6.62;76.33;99471.53;4129537;28;20013;-65
2023/01/15 10:49:19;;;;;;;;;;;;;;;6.62;76.43;99466.16;4130393;28;20012;-64
2023/01/15 10:51:22;;;;;;;;;;;;;;;6.63;76.70;99463.31;4130395;28;20017;-64
2023/01/15 10:53:27;;;;;;;;;;;;;;;6.66;76.83;99473.66;4129482;28;20456;-64
2023/01/15 10:55:31;;;;;;;;;;;;;;;6.67;76.21;99490.59;4130650;28;20354;-65
2023/01/15 10:57:36;;;;;;;;;;;;;;;6.68;75.85;99476.16;4129601;28;19976;-65
2023/01/15 10:59:41;;;;;;;;;;;;;;;6.69;75.51;99469.75;4130422;28;20036;-64
2023/01/15 11:01:43;;;;;;;;;;;;;;;6.70;75.89;99473.31;4128758;28;20024;-64
2023/01/15 11:03:45;;;;;;;;;;;;;;;6.74;75.91;99472.75;4128760;28;20012;-64
2023/01/15 11:05:47;;;;;;;;;;;;;;;6.72;75.14;99492.72;4130192;28;20017;-64
2023/01/15 11:07:50;;;;;;;;;;;;;;;6.70;75.27;99484.03;4129222;28;20036;-64
2023/01/15 11:09:52;;;;;;;;;;;;;;;6.73;75.55;99487.19;4105695;28;20024;-63
2023/01/15 11:21:15;;;;;;;;;;;;;;;6.81;74.62;99470.16;4129677;28;20431;-65
2023/01/15 11:23:18;;;;;;;;;;;;;;;6.78;74.18;99478.59;4128906;28;20004;-65
2023/01/15 11:25:27;;;;;;;;;;;;;;;6.80;74.20;99477.38;4129791;28;20032;-64
2023/01/15 11:27:31;;;;;;;;;;;;;;;6.81;73.98;99478.22;4129173;28;20020;-64
2023/01/15 11:29:35;;;;;;;;;;;;;;;6.83;73.83;99486.91;4129974;28;20016;-64
2023/01/15 11:31:39;;;;;;;;;;;;;;;6.85;74.24;99493.78;4128947;28;20364;-64
2023/01/15 11:33:43;;;;;;;;;;;;;;;6.87;74.47;99490.06;4129669;28;20012;-64